« Back
NWS Peachtree City, Ga » Text Product » MCN Terminal Aerodrome Forecast


Printer-friendly Version
Current Version              Previous Versions:   1  2  3  4  5  6  7  8  9  

Terminal Aerodrome Forecast

109
FTUS42 KFFC 231120
TAFMCN
TAF
KMCN 231120Z 2312/2412 05004KT P6SM SCT060 SCT100 SCT250
      TEMPO 2312/2315 BKN060
     FM231500 08005KT P6SM SCT050 SCT100 SCT250
     FM231800 08006KT P6SM VCSH BKN050
     FM240000 10003KT P6SM SCT060 BKN150=

USA.gov is the U.S. government's official web portal to all federal, state and local government web resources and services.